sensor_id;sensor_type;location;lat;lon;timestamp;pressure;altitude;pressure_sealevel;temperature
62611;BMP280;48683;48.084;17.272;2022-08-01T00:02:00;100168.75;;;18.79
62611;BMP280;48683;48.084;17.272;2022-08-01T00:04:26;100165.56;;;18.93
62611;BMP280;48683;48.084;17.272;2022-08-01T00:06:51;100162.91;;;18.81
62611;BMP280;48683;48.084;17.272;2022-08-01T00:09:16;100166.38;;;18.81
62611;BMP280;48683;48.084;17.272;2022-08-01T00:11:42;100159.88;;;18.79
62611;BMP280;48683;48.084;17.272;2022-08-01T00:14:07;100153.78;;;18.75
62611;BMP280;48683;48.084;17.272;2022-08-01T00:16:35;100162.50;;;18.91
62611;BMP280;48683;48.084;17.272;2022-08-01T00:19:00;100148.22;;;18.78
62611;BMP280;48683;48.084;17.272;2022-08-01T00:21:25;100158.47;;;18.74
62611;BMP280;48683;48.084;17.272;2022-08-01T00:23:51;100149.03;;;18.66
62611;BMP280;48683;48.084;17.272;2022-08-01T00:26:16;100145.94;;;18.77
62611;BMP280;48683;48.084;17.272;2022-08-01T00:28:41;100146.84;;;18.74
62611;BMP280;48683;48.084;17.272;2022-08-01T00:31:07;100142.53;;;18.85
62611;BMP280;48683;48.084;17.272;2022-08-01T00:33:32;100141.66;;;18.88
62611;BMP280;48683;48.084;17.272;2022-08-01T00:35:58;100149.94;;;18.85
62611;BMP280;48683;48.084;17.272;2022-08-01T00:38:23;100140.25;;;18.84
62611;BMP280;48683;48.084;17.272;2022-08-01T00:40:49;100134.31;;;18.76
62611;BMP280;48683;48.084;17.272;2022-08-01T00:43:14;100138.97;;;18.76
62611;BMP280;48683;48.084;17.272;2022-08-01T00:45:40;100141.13;;;18.81
62611;BMP280;48683;48.084;17.272;2022-08-01T00:48:05;100129.00;;;18.73
62611;BMP280;48683;48.084;17.272;2022-08-01T00:50:31;100134.56;;;18.69
62611;BMP280;48683;48.084;17.272;2022-08-01T00:52:57;100129.25;;;18.87
62611;BMP280;48683;48.084;17.272;2022-08-01T00:55:23;100131.31;;;18.83
62611;BMP280;48683;48.084;17.272;2022-08-01T00:57:49;100124.31;;;18.73
62611;BMP280;48683;48.084;17.272;2022-08-01T01:00:14;100132.03;;;18.75
62611;BMP280;48683;48.084;17.272;2022-08-01T01:02:40;100126.09;;;18.67
62611;BMP280;48683;48.084;17.272;2022-08-01T01:05:06;100130.00;;;18.66
62611;BMP280;48683;48.084;17.272;2022-08-01T01:13:08;100133.88;;;18.78
62611;BMP280;48683;48.084;17.272;2022-08-01T01:15:49;100131.28;;;18.74
62611;BMP280;48683;48.084;17.272;2022-08-01T01:18:29;100128.06;;;18.67
62611;BMP280;48683;48.084;17.272;2022-08-01T01:24:39;100139.78;;;18.64
62611;BMP280;48683;48.084;17.272;2022-08-01T01:27:51;100129.13;;;18.69
62611;BMP280;48683;48.084;17.272;2022-08-01T01:30:24;100134.19;;;18.80
62611;BMP280;48683;48.084;17.272;2022-08-01T01:32:52;100136.13;;;18.79
62611;BMP280;48683;48.084;17.272;2022-08-01T01:35:22;100136.13;;;18.79
62611;BMP280;48683;48.084;17.272;2022-08-01T01:37:50;100143.16;;;18.89
62611;BMP280;48683;48.084;17.272;2022-08-01T01:40:16;100135.31;;;18.91
62611;BMP280;48683;48.084;17.272;2022-08-01T01:42:43;100137.91;;;18.95
62611;BMP280;48683;48.084;17.272;2022-08-01T01:45:09;100145.34;;;18.94
62611;BMP280;48683;48.084;17.272;2022-08-01T01:47:37;100140.88;;;18.88
62611;BMP280;48683;48.084;17.272;2022-08-01T01:50:04;100135.66;;;18.93
62611;BMP280;48683;48.084;17.272;2022-08-01T01:52:31;100132.81;;;18.97
62611;BMP280;48683;48.084;17.272;2022-08-01T01:54:58;100123.50;;;18.85
62611;BMP280;48683;48.084;17.272;2022-08-01T01:57:25;100125.63;;;18.69
62611;BMP280;48683;48.084;17.272;2022-08-01T01:59:53;100125.91;;;18.62
62611;BMP280;48683;48.084;17.272;2022-08-01T02:02:20;100117.88;;;18.58
62611;BMP280;48683;48.084;17.272;2022-08-01T02:04:47;100133.03;;;18.68
62611;BMP280;48683;48.084;17.272;2022-08-01T02:07:20;100127.28;;;18.66
62611;BMP280;48683;48.084;17.272;2022-08-01T02:09:46;100123.69;;;18.69
62611;BMP280;48683;48.084;17.272;2022-08-01T02:12:14;100116.34;;;18.57
62611;BMP280;48683;48.084;17.272;2022-08-01T02:14:42;100113.53;;;18.48
62611;BMP280;48683;48.084;17.272;2022-08-01T02:17:11;100120.59;;;18.45
62611;BMP280;48683;48.084;17.272;2022-08-01T02:19:37;100109.97;;;18.38
62611;BMP280;48683;48.084;17.272;2022-08-01T02:22:07;100119.31;;;18.37
62611;BMP280;48683;48.084;17.272;2022-08-01T02:27:14;100130.16;;;18.50
62611;BMP280;48683;48.084;17.272;2022-08-01T02:29:41;100130.56;;;18.48
62611;BMP280;48683;48.084;17.272;2022-08-01T02:32:11;100132.22;;;18.46
62611;BMP280;48683;48.084;17.272;2022-08-01T02:34:40;100129.84;;;18.48
62611;BMP280;48683;48.084;17.272;2022-08-01T02:37:06;100138.84;;;18.45
62611;BMP280;48683;48.084;17.272;2022-08-01T02:39:33;100128.09;;;18.54
62611;BMP280;48683;48.084;17.272;2022-08-01T02:42:05;100116.03;;;18.55
62611;BMP280;48683;48.084;17.272;2022-08-01T02:44:34;100124.06;;;18.59
62611;BMP280;48683;48.084;17.272;2022-08-01T02:47:01;100119.19;;;18.54
62611;BMP280;48683;48.084;17.272;2022-08-01T02:49:44;100117.88;;;18.58
62611;BMP280;48683;48.084;17.272;2022-08-01T02:52:13;100124.69;;;18.63
62611;BMP280;48683;48.084;17.272;2022-08-01T02:54:41;100127.41;;;18.63
62611;BMP280;48683;48.084;17.272;2022-08-01T02:57:08;100115.09;;;18.71
62611;BMP280;48683;48.084;17.272;2022-08-01T02:59:37;100116.41;;;18.66
62611;BMP280;48683;48.084;17.272;2022-08-01T03:02:03;100114.72;;;18.60
62611;BMP280;48683;48.084;17.272;2022-08-01T03:04:33;100107.78;;;18.46
62611;BMP280;48683;48.084;17.272;2022-08-01T03:07:00;100119.06;;;18.44
62611;BMP280;48683;48.084;17.272;2022-08-01T03:09:28;100111.81;;;18.41
62611;BMP280;48683;48.084;17.272;2022-08-01T03:11:57;100120.84;;;18.38
62611;BMP280;48683;48.084;17.272;2022-08-01T03:14:24;100108.53;;;18.12
62611;BMP280;48683;48.084;17.272;2022-08-01T03:16:51;100103.91;;;17.87
62611;BMP280;48683;48.084;17.272;2022-08-01T03:19:18;100113.47;;;17.79
62611;BMP280;48683;48.084;17.272;2022-08-01T03:21:46;100109.56;;;17.68
62611;BMP280;48683;48.084;17.272;2022-08-01T03:24:14;100114.22;;;17.54
62611;BMP280;48683;48.084;17.272;2022-08-01T03:26:39;100114.22;;;17.54
62611;BMP280;48683;48.084;17.272;2022-08-01T03:29:11;100133.44;;;17.60
62611;BMP280;48683;48.084;17.272;2022-08-01T03:31:38;100134.31;;;17.70
62611;BMP280;48683;48.084;17.272;2022-08-01T03:34:08;100128.34;;;17.62
62611;BMP280;48683;48.084;17.272;2022-08-01T03:36:35;100125.06;;;17.67
62611;BMP280;48683;48.084;17.272;2022-08-01T03:39:08;100122.28;;;17.58
62611;BMP280;48683;48.084;17.272;2022-08-01T03:41:39;100122.00;;;17.52
62611;BMP280;48683;48.084;17.272;2022-08-01T03:44:10;100124.19;;;17.45
62611;BMP280;48683;48.084;17.272;2022-08-01T03:46:45;100121.91;;;17.31
62611;BMP280;48683;48.084;17.272;2022-08-01T03:49:22;100113.72;;;17.18
62611;BMP280;48683;48.084;17.272;2022-08-01T03:51:49;100122.31;;;17.29
62611;BMP280;48683;48.084;17.272;2022-08-01T03:54:21;100128.41;;;17.33
62611;BMP280;48683;48.084;17.272;2022-08-01T03:56:49;100137.41;;;17.30
62611;BMP280;48683;48.084;17.272;2022-08-01T03:59:17;100134.91;;;17.36
62611;BMP280;48683;48.084;17.272;2022-08-01T04:01:43;100139.38;;;17.55
62611;BMP280;48683;48.084;17.272;2022-08-01T04:04:09;100140.72;;;17.63
62611;BMP280;48683;48.084;17.272;2022-08-01T04:06:38;100133.34;;;17.64
62611;BMP280;48683;48.084;17.272;2022-08-01T04:09:03;100155.38;;;17.78
62611;BMP280;48683;48.084;17.272;2022-08-01T04:11:29;100137.66;;;17.86
62611;BMP280;48683;48.084;17.272;2022-08-01T04:13:55;100139.53;;;17.89
62611;BMP280;48683;48.084;17.272;2022-08-01T04:16:21;100141.13;;;17.99
62611;BMP280;48683;48.084;17.272;2022-08-01T04:18:46;100139.84;;;17.91
62611;BMP280;48683;48.084;17.272;2022-08-01T04:21:13;100148.63;;;17.95
62611;BMP280;48683;48.084;17.272;2022-08-01T04:23:41;100152.97;;;18.06
62611;BMP280;48683;48.084;17.272;2022-08-01T04:26:08;100146.97;;;18.11
62611;BMP280;48683;48.084;17.272;2022-08-01T04:28:36;100150.88;;;18.22
62611;BMP280;48683;48.084;17.272;2022-08-01T04:31:06;100140.78;;;18.23
62611;BMP280;48683;48.084;17.272;2022-08-01T04:33:34;100145.97;;;18.17
62611;BMP280;48683;48.084;17.272;2022-08-01T04:36:03;100146.31;;;18.32
62611;BMP280;48683;48.084;17.272;2022-08-01T04:38:30;100148.56;;;18.33
62611;BMP280;48683;48.084;17.272;2022-08-01T04:40:57;100148.91;;;18.23
62611;BMP280;48683;48.084;17.272;2022-08-01T04:43:23;100149.81;;;18.20
62611;BMP280;48683;48.084;17.272;2022-08-01T04:45:49;100151.53;;;18.14
62611;BMP280;48683;48.084;17.272;2022-08-01T04:48:17;100153.72;;;18.06
62611;BMP280;48683;48.084;17.272;2022-08-01T04:50:44;100159.03;;;18.10
62611;BMP280;48683;48.084;17.272;2022-08-01T04:53:14;100152.63;;;18.16
62611;BMP280;48683;48.084;17.272;2022-08-01T04:55:42;100152.50;;;18.20
62611;BMP280;48683;48.084;17.272;2022-08-01T04:58:09;100154.22;;;18.26
62611;BMP280;48683;48.084;17.272;2022-08-01T05:00:35;100157.22;;;18.41
62611;BMP280;48683;48.084;17.272;2022-08-01T05:03:01;100154.22;;;18.52
62611;BMP280;48683;48.084;17.272;2022-08-01T05:05:26;100156.44;;;18.66
62611;BMP280;48683;48.084;17.272;2022-08-01T05:07:51;100151.25;;;18.59
62611;BMP280;48683;48.084;17.272;2022-08-01T05:10:17;100153.50;;;18.60
62611;BMP280;48683;48.084;17.272;2022-08-01T05:12:42;100157.31;;;18.50
62611;BMP280;48683;48.084;17.272;2022-08-01T05:15:08;100145.72;;;18.37
62611;BMP280;48683;48.084;17.272;2022-08-01T05:17:33;100158.63;;;18.45
62611;BMP280;48683;48.084;17.272;2022-08-01T05:19:59;100156.56;;;18.49
62611;BMP280;48683;48.084;17.272;2022-08-01T05:22:24;100157.19;;;18.66
62611;BMP280;48683;48.084;17.272;2022-08-01T05:24:50;100160.59;;;18.79
62611;BMP280;48683;48.084;17.272;2022-08-01T05:27:16;100153.97;;;18.80
62611;BMP280;48683;48.084;17.272;2022-08-01T05:29:41;100159.63;;;18.86
62611;BMP280;48683;48.084;17.272;2022-08-01T05:32:07;100151.50;;;18.95
62611;BMP280;48683;48.084;17.272;2022-08-01T05:34:32;100155.00;;;18.95
62611;BMP280;48683;48.084;17.272;2022-08-01T05:36:58;100164.63;;;19.09
62611;BMP280;48683;48.084;17.272;2022-08-01T05:39:23;100157.22;;;19.10
62611;BMP280;48683;48.084;17.272;2022-08-01T05:41:49;100173.91;;;19.21
62611;BMP280;48683;48.084;17.272;2022-08-01T05:44:14;100164.09;;;19.23
62611;BMP280;48683;48.084;17.272;2022-08-01T05:46:40;100172.94;;;19.36
62611;BMP280;48683;48.084;17.272;2022-08-01T05:49:06;100177.44;;;19.52
62611;BMP280;48683;48.084;17.272;2022-08-01T05:51:31;100177.44;;;19.52
62611;BMP280;48683;48.084;17.272;2022-08-01T05:53:58;100175.97;;;19.60
62611;BMP280;48683;48.084;17.272;2022-08-01T05:56:24;100186.25;;;19.65
62611;BMP280;48683;48.084;17.272;2022-08-01T05:58:50;100180.06;;;19.65
62611;BMP280;48683;48.084;17.272;2022-08-01T06:01:16;100169.91;;;19.65
62611;BMP280;48683;48.084;17.272;2022-08-01T06:03:42;100171.59;;;19.63
62611;BMP280;48683;48.084;17.272;2022-08-01T06:06:07;100172.47;;;19.60
62611;BMP280;48683;48.084;17.272;2022-08-01T06:08:33;100176.75;;;19.70
62611;BMP280;48683;48.084;17.272;2022-08-01T06:10:58;100167.66;;;19.64
62611;BMP280;48683;48.084;17.272;2022-08-01T06:13:24;100164.19;;;19.63
62611;BMP280;48683;48.084;17.272;2022-08-01T06:15:49;100171.16;;;19.64
62611;BMP280;48683;48.084;17.272;2022-08-01T06:18:16;100176.63;;;19.73
62611;BMP280;48683;48.084;17.272;2022-08-01T06:20:41;100167.66;;;19.64
62611;BMP280;48683;48.084;17.272;2022-08-01T06:23:07;100173.41;;;19.66
62611;BMP280;48683;48.084;17.272;2022-08-01T06:25:33;100170.81;;;19.62
62611;BMP280;48683;48.084;17.272;2022-08-01T06:27:58;100175.47;;;19.53
62611;BMP280;48683;48.084;17.272;2022-08-01T06:30:24;100173.38;;;19.57
62611;BMP280;48683;48.084;17.272;2022-08-01T06:32:49;100184.44;;;19.62
62611;BMP280;48683;48.084;17.272;2022-08-01T06:35:15;100183.72;;;19.71
62611;BMP280;48683;48.084;17.272;2022-08-01T06:37:40;100179.22;;;19.46
62611;BMP280;48683;48.084;17.272;2022-08-01T06:40:09;100177.50;;;19.39
62611;BMP280;48683;48.084;17.272;2022-08-01T06:42:35;100175.94;;;19.29
62611;BMP280;48683;48.084;17.272;2022-08-01T06:45:10;100171.19;;;19.42
62611;BMP280;48683;48.084;17.272;2022-08-01T06:47:37;100183.81;;;19.58
62611;BMP280;48683;48.084;17.272;2022-08-01T06:50:03;100183.22;;;19.63
62611;BMP280;48683;48.084;17.272;2022-08-01T06:52:29;100182.09;;;19.82
62611;BMP280;48683;48.084;17.272;2022-08-01T06:54:54;100179.00;;;20.02
62611;BMP280;48683;48.084;17.272;2022-08-01T06:57:19;100177.19;;;20.08
62611;BMP280;48683;48.084;17.272;2022-08-01T06:59:45;100182.81;;;20.14
62611;BMP280;48683;48.084;17.272;2022-08-01T07:02:10;100190.69;;;20.21
62611;BMP280;48683;48.084;17.272;2022-08-01T07:04:36;100197.44;;;20.38
62611;BMP280;48683;48.084;17.272;2022-08-01T07:07:02;100194.25;;;20.49
62611;BMP280;48683;48.084;17.272;2022-08-01T07:09:28;100190.19;;;20.53
62611;BMP280;48683;48.084;17.272;2022-08-01T07:11:54;100196.41;;;20.72
62611;BMP280;48683;48.084;17.272;2022-08-01T07:14:20;100190.34;;;20.77
62611;BMP280;48683;48.084;17.272;2022-08-01T07:16:46;100189.72;;;20.82
62611;BMP280;48683;48.084;17.272;2022-08-01T07:19:11;100182.91;;;20.96
62611;BMP280;48683;48.084;17.272;2022-08-01T07:21:38;100190.34;;;20.95
62611;BMP280;48683;48.084;17.272;2022-08-01T07:24:04;100188.22;;;20.99
62611;BMP280;48683;48.084;17.272;2022-08-01T07:26:30;100183.81;;;21.11
62611;BMP280;48683;48.084;17.272;2022-08-01T07:28:55;100193.97;;;21.19
62611;BMP280;48683;48.084;17.272;2022-08-01T07:31:20;100193.66;;;21.36
62611;BMP280;48683;48.084;17.272;2022-08-01T07:33:46;100188.91;;;21.45
62611;BMP280;48683;48.084;17.272;2022-08-01T07:36:12;100191.28;;;21.61
62611;BMP280;48683;48.084;17.272;2022-08-01T07:38:37;100192.56;;;21.84
62611;BMP280;48683;48.084;17.272;2022-08-01T07:41:02;100184.06;;;21.91
62611;BMP280;48683;48.084;17.272;2022-08-01T07:43:28;100183.44;;;21.96
62611;BMP280;48683;48.084;17.272;2022-08-01T07:45:54;100180.34;;;22.03
62611;BMP280;48683;48.084;17.272;2022-08-01T07:48:19;100175.78;;;22.09
62611;BMP280;48683;48.084;17.272;2022-08-01T07:50:49;100178.09;;;22.25
62611;BMP280;48683;48.084;17.272;2022-08-01T07:53:15;100179.56;;;22.59
62611;BMP280;48683;48.084;17.272;2022-08-01T07:55:40;100174.31;;;22.47
62611;BMP280;48683;48.084;17.272;2022-08-01T07:58:05;100178.09;;;22.73
62611;BMP280;48683;48.084;17.272;2022-08-01T08:00:31;100172.38;;;23.00
62611;BMP280;48683;48.084;17.272;2022-08-01T08:02:56;100183.91;;;23.34
62611;BMP280;48683;48.084;17.272;2022-08-01T08:05:25;100178.56;;;23.54
62611;BMP280;48683;48.084;17.272;2022-08-01T08:07:50;100174.72;;;23.66
62611;BMP280;48683;48.084;17.272;2022-08-01T08:10:16;100167.69;;;23.94
62611;BMP280;48683;48.084;17.272;2022-08-01T08:12:41;100171.50;;;24.37
62611;BMP280;48683;48.084;17.272;2022-08-01T08:15:07;100151.47;;;24.51
62611;BMP280;48683;48.084;17.272;2022-08-01T08:17:33;100151.53;;;24.57
62611;BMP280;48683;48.084;17.272;2022-08-01T08:19:59;100132.34;;;24.57
62611;BMP280;48683;48.084;17.272;2022-08-01T08:22:24;100161.63;;;24.86
62611;BMP280;48683;48.084;17.272;2022-08-01T08:24:49;100171.94;;;24.96
62611;BMP280;48683;48.084;17.272;2022-08-01T08:27:15;100177.94;;;25.21
62611;BMP280;48683;48.084;17.272;2022-08-01T08:29:41;100179.91;;;25.20
62611;BMP280;48683;48.084;17.272;2022-08-01T08:32:07;100173.91;;;25.22
62611;BMP280;48683;48.084;17.272;2022-08-01T08:34:32;100191.19;;;25.54
62611;BMP280;48683;48.084;17.272;2022-08-01T08:36:58;100179.28;;;25.62
62611;BMP280;48683;48.084;17.272;2022-08-01T08:39:24;100173.03;;;25.62
62611;BMP280;48683;48.084;17.272;2022-08-01T08:41:50;100166.88;;;25.78
62611;BMP280;48683;48.084;17.272;2022-08-01T08:44:16;100171.63;;;25.77
62611;BMP280;48683;48.084;17.272;2022-08-01T08:46:45;100167.66;;;25.84
62611;BMP280;48683;48.084;17.272;2022-08-01T08:49:12;100172.97;;;25.93
62611;BMP280;48683;48.084;17.272;2022-08-01T08:51:41;100177.00;;;25.97
62611;BMP280;48683;48.084;17.272;2022-08-01T08:54:07;100175.53;;;26.02
62611;BMP280;48683;48.084;17.272;2022-08-01T08:56:34;100169.28;;;26.07
62611;BMP280;48683;48.084;17.272;2022-08-01T08:59:01;100169.38;;;26.18
62611;BMP280;48683;48.084;17.272;2022-08-01T09:01:27;100165.94;;;26.29
62611;BMP280;48683;48.084;17.272;2022-08-01T09:03:53;100159.63;;;26.17
62611;BMP280;48683;48.084;17.272;2022-08-01T09:06:19;100171.16;;;26.27
62611;BMP280;48683;48.084;17.272;2022-08-01T09:08:44;100167.47;;;26.30
62611;BMP280;48683;48.084;17.272;2022-08-01T09:11:10;100164.22;;;26.42
62611;BMP280;48683;48.084;17.272;2022-08-01T09:13:36;100163.78;;;26.50
62611;BMP280;48683;48.084;17.272;2022-08-01T09:16:01;100162.78;;;26.53
62611;BMP280;48683;48.084;17.272;2022-08-01T09:18:35;100174.78;;;26.55
62611;BMP280;48683;48.084;17.272;2022-08-01T09:21:15;100165.78;;;26.55
62611;BMP280;48683;48.084;17.272;2022-08-01T09:23:51;100169.78;;;26.54
62611;BMP280;48683;48.084;17.272;2022-08-01T09:28:56;100162.25;;;26.43
62611;BMP280;48683;48.084;17.272;2022-08-01T09:31:21;100171.53;;;26.51
62611;BMP280;48683;48.084;17.272;2022-08-01T09:36:12;100166.53;;;26.55
62611;BMP280;48683;48.084;17.272;2022-08-01T09:38:37;100183.81;;;26.56
62611;BMP280;48683;48.084;17.272;2022-08-01T09:41:03;100180.78;;;26.54
62611;BMP280;48683;48.084;17.272;2022-08-01T09:43:29;100177.53;;;26.50
62611;BMP280;48683;48.084;17.272;2022-08-01T09:45:56;100177.22;;;26.36
62611;BMP280;48683;48.084;17.272;2022-08-01T09:48:22;100177.75;;;26.46
62611;BMP280;48683;48.084;17.272;2022-08-01T09:50:49;100172.72;;;26.33
62611;BMP280;48683;48.084;17.272;2022-08-01T09:53:15;100177.75;;;26.40
62611;BMP280;48683;48.084;17.272;2022-08-01T09:55:41;100175.75;;;26.47
62611;BMP280;48683;48.084;17.272;2022-08-01T09:58:07;100184.00;;;26.47
62611;BMP280;48683;48.084;17.272;2022-08-01T10:00:34;100179.78;;;26.51
62611;BMP280;48683;48.084;17.272;2022-08-01T10:03:18;100177.09;;;26.68
62611;BMP280;48683;48.084;17.272;2022-08-01T10:05:44;100171.59;;;26.79
62611;BMP280;48683;48.084;17.272;2022-08-01T10:08:09;100165.41;;;26.95
62611;BMP280;48683;48.084;17.272;2022-08-01T10:10:35;100164.69;;;27.00
62611;BMP280;48683;48.084;17.272;2022-08-01T10:13:01;100156.63;;;26.97
62611;BMP280;48683;48.084;17.272;2022-08-01T10:15:28;100166.19;;;27.18
62611;BMP280;48683;48.084;17.272;2022-08-01T10:17:59;100158.41;;;27.11
62611;BMP280;48683;48.084;17.272;2022-08-01T10:20:28;100165.16;;;27.04
62611;BMP280;48683;48.084;17.272;2022-08-01T10:22:55;100164.41;;;26.98
62611;BMP280;48683;48.084;17.272;2022-08-01T10:25:23;100163.91;;;26.88
62611;BMP280;48683;48.084;17.272;2022-08-01T10:27:53;100161.38;;;26.85
62611;BMP280;48683;48.084;17.272;2022-08-01T10:30:20;100161.66;;;26.87
62611;BMP280;48683;48.084;17.272;2022-08-01T10:32:46;100154.84;;;26.82
62611;BMP280;48683;48.084;17.272;2022-08-01T10:35:12;100147.56;;;26.74
62611;BMP280;48683;48.084;17.272;2022-08-01T10:37:43;100149.34;;;26.82
62611;BMP280;48683;48.084;17.272;2022-08-01T10:40:12;100160.59;;;26.79
62611;BMP280;48683;48.084;17.272;2022-08-01T10:42:39;100160.59;;;26.79
62611;BMP280;48683;48.084;17.272;2022-08-01T10:45:07;100147.53;;;26.57
62611;BMP280;48683;48.084;17.272;2022-08-01T10:48:02;100135.56;;;26.71
62611;BMP280;48683;48.084;17.272;2022-08-01T10:50:29;100137.56;;;26.82
62611;BMP280;48683;48.084;17.272;2022-08-01T10:53:16;100143.81;;;26.71
62611;BMP280;48683;48.084;17.272;2022-08-01T10:56:01;100142.06;;;26.79
62611;BMP280;48683;48.084;17.272;2022-08-01T10:58:35;100142.38;;;26.98
62611;BMP280;48683;48.084;17.272;2022-08-01T11:01:29;100143.63;;;27.25
62611;BMP280;48683;48.084;17.272;2022-08-01T11:09:02;100142.13;;;27.68
62611;BMP280;48683;48.084;17.272;2022-08-01T11:11:28;100141.84;;;27.89
62611;BMP280;48683;48.084;17.272;2022-08-01T11:16:39;100131.16;;;28.32
62611;BMP280;48683;48.084;17.272;2022-08-01T11:19:05;100136.63;;;28.43
62611;BMP280;48683;48.084;17.272;2022-08-01T11:29:40;100115.13;;;28.76
62611;BMP280;48683;48.084;17.272;2022-08-01T11:32:27;100115.88;;;28.77
62611;BMP280;48683;48.084;17.272;2022-08-01T11:34:54;100111.38;;;29.09
62611;BMP280;48683;48.084;17.272;2022-08-01T11:37:27;100106.63;;;29.34
62611;BMP280;48683;48.084;17.272;2022-08-01T11:40:15;100105.91;;;29.34
62611;BMP280;48683;48.084;17.272;2022-08-01T11:42:41;100098.34;;;29.34
62611;BMP280;48683;48.084;17.272;2022-08-01T11:45:07;100097.84;;;29.36
62611;BMP280;48683;48.084;17.272;2022-08-01T11:47:48;100096.41;;;29.23
62611;BMP280;48683;48.084;17.272;2022-08-01T11:50:34;100097.56;;;29.39
62611;BMP280;48683;48.084;17.272;2022-08-01T11:53:04;100097.56;;;29.39
62611;BMP280;48683;48.084;17.272;2022-08-01T11:55:30;100090.75;;;29.64
62611;BMP280;48683;48.084;17.272;2022-08-01T11:58:03;100096.53;;;29.91
62611;BMP280;48683;48.084;17.272;2022-08-01T12:00:29;100083.91;;;29.95
62611;BMP280;48683;48.084;17.272;2022-08-01T12:03:02;100082.69;;;30.09
62611;BMP280;48683;48.084;17.272;2022-08-01T12:05:29;100086.66;;;29.95
62611;BMP280;48683;48.084;17.272;2022-08-01T12:07:56;100087.72;;;30.30
62611;BMP280;48683;48.084;17.272;2022-08-01T12:10:24;100081.50;;;30.24
62611;BMP280;48683;48.084;17.272;2022-08-01T12:12:55;100074.94;;;30.45
62611;BMP280;48683;48.084;17.272;2022-08-01T12:15:24;100069.69;;;30.60
62611;BMP280;48683;48.084;17.272;2022-08-01T12:18:14;100070.16;;;30.46
62611;BMP280;48683;48.084;17.272;2022-08-01T12:20:42;100066.47;;;30.38
62611;BMP280;48683;48.084;17.272;2022-08-01T12:23:11;100072.97;;;30.59
62611;BMP280;48683;48.084;17.272;2022-08-01T12:25:38;100063.78;;;30.51
62611;BMP280;48683;48.084;17.272;2022-08-01T12:28:09;100068.69;;;30.77
62611;BMP280;48683;48.084;17.272;2022-08-01T12:30:36;100072.53;;;30.87
62611;BMP280;48683;48.084;17.272;2022-08-01T12:33:03;100061.88;;;30.91
62611;BMP280;48683;48.084;17.272;2022-08-01T12:35:31;100071.66;;;30.79
62611;BMP280;48683;48.084;17.272;2022-08-01T12:38:02;100069.44;;;30.90
62611;BMP280;48683;48.084;17.272;2022-08-01T12:40:33;100063.59;;;30.94
62611;BMP280;48683;48.084;17.272;2022-08-01T12:43:00;100069.97;;;31.07
62611;BMP280;48683;48.084;17.272;2022-08-01T12:45:29;100068.69;;;31.08
62611;BMP280;48683;48.084;17.272;2022-08-01T12:47:56;100065.81;;;31.14
62611;BMP280;48683;48.084;17.272;2022-08-01T12:50:27;100068.94;;;30.92
62611;BMP280;48683;48.084;17.272;2022-08-01T12:52:54;100058.16;;;30.88
62611;BMP280;48683;48.084;17.272;2022-08-01T12:55:21;100056.03;;;30.94
62611;BMP280;48683;48.084;17.272;2022-08-01T12:57:50;100048.84;;;31.18
62611;BMP280;48683;48.084;17.272;2022-08-01T13:00:23;100061.63;;;31.07
62611;BMP280;48683;48.084;17.272;2022-08-01T13:03:05;100049.00;;;30.93
62611;BMP280;48683;48.084;17.272;2022-08-01T13:08:13;100052.50;;;30.94
62611;BMP280;48683;48.084;17.272;2022-08-01T13:10:39;100045.97;;;31.10
62611;BMP280;48683;48.084;17.272;2022-08-01T13:13:05;100042.28;;;30.89
62611;BMP280;48683;48.084;17.272;2022-08-01T13:15:33;100053.81;;;30.42
62611;BMP280;48683;48.084;17.272;2022-08-01T13:18:01;100049.34;;;30.02
62611;BMP280;48683;48.084;17.272;2022-08-01T13:20:45;100049.50;;;29.91
62611;BMP280;48683;48.084;17.272;2022-08-01T13:23:18;100037.31;;;29.99
62611;BMP280;48683;48.084;17.272;2022-08-01T13:25:54;100038.38;;;29.72
62611;BMP280;48683;48.084;17.272;2022-08-01T13:28:25;100031.88;;;29.69
62611;BMP280;48683;48.084;17.272;2022-08-01T13:33:21;100032.53;;;29.57
62611;BMP280;48683;48.084;17.272;2022-08-01T13:35:49;100031.13;;;29.69
62611;BMP280;48683;48.084;17.272;2022-08-01T13:38:14;100038.88;;;29.52
62611;BMP280;48683;48.084;17.272;2022-08-01T13:40:40;100031.63;;;29.49
62611;BMP280;48683;48.084;17.272;2022-08-01T13:43:05;100042.13;;;29.50
62611;BMP280;48683;48.084;17.272;2022-08-01T13:45:30;100029.34;;;29.72
62611;BMP280;48683;48.084;17.272;2022-08-01T13:47:56;100021.34;;;29.68
62611;BMP280;48683;48.084;17.272;2022-08-01T13:50:21;100034.25;;;29.60
62611;BMP280;48683;48.084;17.272;2022-08-01T13:52:46;100027.06;;;29.51
62611;BMP280;48683;48.084;17.272;2022-08-01T13:55:12;100035.50;;;29.59
62611;BMP280;48683;48.084;17.272;2022-08-01T13:57:37;100030.28;;;29.55
62611;BMP280;48683;48.084;17.272;2022-08-01T14:00:07;100029.03;;;29.56
62611;BMP280;48683;48.084;17.272;2022-08-01T14:02:33;100033.09;;;29.50
62611;BMP280;48683;48.084;17.272;2022-08-01T14:04:59;100034.59;;;29.51
62611;BMP280;48683;48.084;17.272;2022-08-01T14:07:24;100032.47;;;29.38
62611;BMP280;48683;48.084;17.272;2022-08-01T14:09:50;100039.13;;;29.24
62611;BMP280;48683;48.084;17.272;2022-08-01T14:12:15;100041.44;;;29.20
62611;BMP280;48683;48.084;17.272;2022-08-01T14:14:41;100044.84;;;29.32
62611;BMP280;48683;48.084;17.272;2022-08-01T14:17:06;100041.88;;;29.24
62611;BMP280;48683;48.084;17.272;2022-08-01T14:19:31;100048.00;;;29.17
62611;BMP280;48683;48.084;17.272;2022-08-01T14:21:57;100049.03;;;29.14
62611;BMP280;48683;48.084;17.272;2022-08-01T14:24:23;100057.84;;;29.12
62611;BMP280;48683;48.084;17.272;2022-08-01T14:26:48;100057.84;;;29.12